WEATHER DATA

YESTERDAY
Time Temp. Dewp. Hum. Bar. 1h Prec. 24h Prec.
00:08 15.4 10.4 72 1009.3 0.0000 0.0000
00:18 15.3 10.3 72 1009.3 0.0000 0.0000
00:28 15.2 10.2 72 1009.2 0.0000 0.0000
00:38 15.1 10.3 73 1009.2 0.0000 0.0000
00:49 15.1 10.3 73 1009.2 0.0000 0.0000
00:58 15.1 10.3 73 1009.1 0.0000 0.0000
01:08 15.2 10.4 73 1009 0.0000 0.0000
01:19 15.2 10.4 73 1008.9 0.0000 0.0000
01:29 15.1 10.3 73 1008.8 0.0000 0.0000
01:39 15 10.2 73 1008.8 0.0000 0.0000
01:49 14.9 10.1 73 1008.8 0.0000 0.0000
01:59 14.8 10.2 74 1008.7 0.0000 0.0000
02:09 14.7 10.1 74 1008.6 0.0000 0.0000
02:19 14.7 10.1 74 1008.7 0.0000 0.0000
02:30 14.6 10.2 75 1008.6 0.0000 0.0000
02:39 14.5 10.1 75 1008.6 0.0000 0.0000
02:49 14.3 9.9 75 1008.5 0.0000 0.0000
02:59 14.1 9.7 75 1008.5 0.0000 0.0000
03:10 14 9.8 76 1008.4 0.0000 0.0000
03:20 14 9.8 76 1008.3 0.0000 0.0000
03:29 13.9 9.7 76 1008.3 0.0000 0.0000
03:40 13.8 9.6 76 1008.4 0.0000 0.0000
03:50 13.7 9.7 77 1008.2 0.0000 0.0000
04:00 13.6 9.6 77 1008.2 0.0000 0.0000
04:10 13.5 9.7 78 1008.2 0.0000 0.0000
04:20 13.4 9.6 78 1008 0.0000 0.0000
04:30 13.4 9.6 78 1008 0.0000 0.0000
04:40 13.4 9.6 78 1007.9 0.0000 0.0000
04:51 13.3 9.5 78 1007.8 0.0000 0.0000
05:00 13.3 9.7 79 1007.8 0.0000 0.0000
05:10 13.3 9.7 79 1007.8 0.0000 0.0000
05:20 13.3 9.7 79 1007.7 0.0000 0.0000
05:31 13.3 9.7 79 1007.7 0.0000 0.0000
05:41 13.3 9.7 79 1007.6 0.0000 0.0000
05:50 13.4 9.8 79 1007.5 0.0000 0.0000
06:01 13.3 9.7 79 1007.5 0.0000 0.0000
06:11 13.3 9.9 80 1007.5 0.0000 0.0000
06:21 13.4 10 80 1007.4 0.0000 0.0000
06:31 13.4 9.8 79 1007.4 0.0000 0.0000
06:41 13.5 10.1 80 1007.4 0.0000 0.0000
06:51 13.7 10.3 80 1007.5 0.0000 0.0000
07:01 13.9 10.5 80 1007.5 0.0000 0.0000
07:11 14.1 10.5 79 1007.5 0.0000 0.0000
07:22 14.2 10.6 79 1007.4 0.0000 0.0000
07:31 14.3 10.7 79 1007.4 0.0000 0.0000
07:41 14.2 10.6 79 1007.3 0.0000 0.0000
07:52 14.3 10.7 79 1007.3 0.0000 0.0000
08:02 14.3 10.7 79 1007.2 0.0000 0.0000
08:11 14.4 10.8 79 1007.3 0.0000 0.0000
08:22 14.5 11.1 80 1007.4 0.0000 0.0000
08:32 14.5 11.1 80 1007.3 0.0000 0.0000
08:42 14.5 11.1 80 1007.4 0.0000 0.0000
08:52 14.5 11.1 80 1007.3 0.0000 0.0000
09:02 14.5 11.3 81 1007.4 0.1010 0.1000
09:12 14.4 11.2 81 1007.3 0.2020 0.2000
09:22 14.3 11.3 82 1007.3 0.5050 0.5000
09:32 14.3 11.5 83 1007.3 0.8080 0.8000
09:43 14.4 11.7 84 1007.3 0.9090 0.9000
09:52 14.5 11.8 84 1007.3 0.9090 1.0000
10:02 14.6 12.1 85 1007.3 1.1110 1.2000
10:13 14.9 12.4 85 1007.4 1.0100 1.3000
10:23 15 12.3 84 1007.4 0.7070 1.4000
10:32 15.1 12.4 84 1007.4 0.6060 1.5000
10:43 15.3 12.6 84 1007.4 0.5050 1.5000
10:53 15.4 12.5 83 1007.3 0.4040 1.5000
11:03 15.4 12.5 83 1007.3 0.3030 1.5000
11:13 15.2 12.3 83 1007.3 0.3030 1.6000
11:23 15.2 12.3 83 1007.3 0.2020 1.6000
11:33 15.1 12.2 83 1007.3 0.4040 1.9000
11:43 15.2 12.5 84 1007.2 0.6060 2.1000
11:53 15.3 12.6 84 1007.1 0.6060 2.1000
12:04 15.3 12.6 84 1007 0.5050 2.1000
12:13 15.4 12.7 84 1007 0.5050 2.1000
12:23 15.5 12.8 84 1006.9 0.4040 2.1000
12:34 15.8 12.9 83 1006.9 0.1010 2.1000
12:44 15.9 12.8 82 1006.8 0.0000 2.1000
12:54 16 12.9 82 1006.8 0.0000 2.1000
13:04 16.3 13 81 1006.9 0.0000 2.1000
13:14 16.5 13 80 1006.8 0.0000 2.1000
13:24 16.6 12.6 77 1006.9 0.0000 2.1000
13:34 16.5 12.3 76 1006.9 0.0000 2.1000
13:44 16.5 12.3 76 1006.9 0.0000 2.1000
13:54 16.7 12.5 76 1006.8 0.0000 2.1000
14:04 16.8 12.7 77 1006.8 0.0000 2.1000
14:14 16.6 12.6 77 1006.9 0.1010 2.2000
14:25 16.4 12.6 78 1006.8 0.1010 2.2000
14:34 16.5 12.7 78 1006.7 0.1010 2.2000
14:44 16.3 12.7 79 1006.7 0.3030 2.4000
14:55 16.3 13 81 1006.6 0.3030 2.4000
15:05 16.2 12.9 81 1006.6 0.4040 2.5000
15:15 16.3 13.2 82 1006.5 0.3030 2.5000
15:25 16.3 13.2 82 1006.5 0.3030 2.5000
15:35 16.3 13.2 82 1006.5 0.3030 2.5000
15:45 16.4 13.3 82 1006.5 0.1010 2.5000
15:55 16.7 13.4 81 1006.5 0.1010 2.5000
16:06 16.9 13.4 80 1006.5 0.0000 2.5000
16:15 17.1 13.6 80 1006.5 0.0000 2.5000
16:25 17.1 13.4 79 1006.6 0.0000 2.5000
16:35 17.1 13.4 79 1006.6 0.0000 2.5000
16:46 17 13.3 79 1006.6 0.0000 2.5000
16:55 16.9 13.2 79 1006.7 0.0000 2.5000
17:05 16.8 13.1 79 1006.8 0.0000 2.5000
17:16 16.8 13.1 79 1006.8 0.0000 2.5000
17:26 16.7 13 79 1006.8 0.0000 2.5000
17:36 16.7 13 79 1006.8 0.0000 2.5000
17:46 16.7 13 79 1006.9 0.0000 2.5000
17:56 16.6 13.1 80 1006.9 0.0000 2.5000
18:06 16.3 13 81 1007 0.0000 2.5000
18:16 16 12.9 82 1007 0.0000 2.5000
18:27 15.9 13 83 1007 0.0000 2.5000
18:36 16 13.3 84 1006.9 0.0000 2.5000
18:46 16.1 13.4 84 1007 0.0000 2.5000
18:56 16.1 13.2 83 1007.1 0.0000 2.5000
19:07 16.1 13.2 83 1007.1 0.0000 2.5000
19:17 16.1 13.2 83 1007.2 0.0000 2.5000
19:26 16 13.1 83 1007.2 0.0000 2.5000
19:37 15.9 13.2 84 1007.3 0.0000 2.5000
19:47 15.8 12.9 83 1007.4 0.1010 2.6000
19:57 15.8 12.9 83 1007.5 0.1010 2.6000
20:07 15.7 12.8 83 1007.5 0.1010 2.6000
20:17 15.6 12.7 83 1007.6 0.1010 2.6000
20:27 15.5 12.6 83 1007.6 0.1010 2.6000
20:37 15.5 12.6 83 1007.7 0.1010 2.6000
20:48 15.4 12.5 83 1007.8 0.0000 2.6000
20:57 15.3 12.4 83 1007.8 0.0000 2.6000
21:07 15.2 12.3 83 1007.9 0.0000 2.6000
21:17 15.1 12.2 83 1008 0.0000 2.6000
21:28 15 12.1 83 1008 0.0000 2.6000
21:38 14.9 12.2 84 1008.1 0.0000 2.6000
21:47 14.9 12.2 84 1008.1 0.0000 2.6000
21:58 14.9 12.4 85 1008.1 0.0000 2.6000
22:08 14.9 12.4 85 1008.2 0.0000 2.6000
22:18 14.8 12.3 85 1008.2 0.0000 2.6000
22:28 14.8 12.3 85 1008.3 0.0000 2.6000
22:38 14.8 12.3 85 1008.2 0.0000 2.6000
22:48 14.7 12.2 85 1008.3 0.0000 2.6000
22:58 14.7 12.2 85 1008.3 0.0000 2.6000
23:09 14.7 12.2 85 1008.3 0.0000 2.6000
23:18 14.7 12.2 85 1008.3 0.0000 2.6000
23:28 14.6 12.1 85 1008.3 0.0000 2.6000
23:38 14.6 12.1 85 1008.3 0.0000 2.6000
23:49 14.5 12 85 1008.4 0.0000 2.6000

DAY STATISTIC

2021-07-30
TEMPERATURE
AVERAGE
15.1
HIGH
17.1
16:15
LOW
13.3
04:51
PRESSURE
AVERAGE
1007.6
HIGH
1009.3
00:08
LOW
1006.5
15:15
DEWPOINT
AVERAGE
11.7
HIGH
13.6
16:15
LOW
9.5
04:51
HUMIDITY
AVERAGE
80
HIGH
85
10:02
LOW
72
00:08
PRECIPITATION
RAIN HOUR
1.1
RAIN DAY
2.6
TEMPERATURE (°C)
LOW
13.3
HIGH
17.1
AVERAGE
15.1
PRESSURE (hpa)
LOW
1006.5
HIGH
1009.3
AVERAGE
1007.6
DEVICE